Time;durP1;ratioP1;P1;durP2;ratioP2;P2;SDS_P1;SDS_P2;PMS_P1;PMS_P2;Temp;Humidity;BMP_temperature;BMP_pressure;BME280_temperature;BME280_humidity;BME280_pressure;Samples;Min_cycle;Max_cycle;Signal;HPM_P1;HPM_P2
2022/11/16 00:01:27;;;;;;;10.60;9.50;;;10.40;99.90;;;;;;4984926;28;20034;-65
2022/11/16 00:03:54;;;;;;;10.98;9.85;;;10.20;99.90;;;;;;4968116;28;20046;-65
2022/11/16 00:06:21;;;;;;;11.52;9.85;;;10.20;99.90;;;;;;5004897;28;20042;-65
2022/11/16 00:09:20;;;;;;;10.05;9.05;;;10.20;99.90;;;;;;5005384;28;20405;-65
2022/11/16 00:11:36;;;;;;;10.07;9.07;;;10.20;99.90;;;;;;5004222;28;20054;-65
2022/11/16 00:14:01;;;;;;;14.25;9.90;;;10.30;99.90;;;;;;5004878;28;20600;-65
2022/11/16 00:16:27;;;;;;;11.23;9.23;;;10.20;99.90;;;;;;5004071;28;20124;-64
2022/11/16 00:19:01;;;;;;;12.82;9.02;;;10.30;99.90;;;;;;5005249;28;20050;-64
2022/11/16 00:21:29;;;;;;;10.48;8.77;;;10.40;99.90;;;;;;5004848;28;20066;-65
2022/11/16 00:23:55;;;;;;;10.57;9.07;;;10.40;99.90;;;;;;5003800;28;20145;-65
2022/11/16 00:26:21;;;;;;;10.40;8.63;;;10.50;99.90;;;;;;5003949;28;20396;-65
2022/11/16 00:28:47;;;;;;;10.82;8.80;;;10.50;99.90;;;;;;5005430;28;20176;-65
2022/11/16 00:31:13;;;;;;;13.20;9.13;;;10.60;99.90;;;;;;5004557;28;20046;-65
2022/11/16 00:33:39;;;;;;;11.05;9.05;;;10.40;99.90;;;;;;5004170;28;20509;-65
2022/11/16 00:36:07;;;;;;;10.98;8.93;;;10.40;99.90;;;;;;5004977;28;20492;-65
2022/11/16 00:38:33;;;;;;;9.90;8.90;;;10.40;99.90;;;;;;5005239;28;20050;-65
2022/11/16 00:40:58;;;;;;;11.73;9.27;;;10.40;99.90;;;;;;5002829;28;20046;-65
2022/11/16 00:43:25;;;;;;;11.85;8.25;;;10.40;99.90;;;;;;5004927;28;20488;-64
2022/11/16 00:45:50;;;;;;;11.88;9.20;;;10.60;99.90;;;;;;5004722;28;20100;-65
2022/11/16 00:48:16;;;;;;;10.25;8.32;;;10.40;99.90;;;;;;5004598;28;20053;-65
2022/11/16 00:50:44;;;;;;;10.77;8.77;;;10.60;99.90;;;;;;5003379;28;20595;-65
2022/11/16 00:53:12;;;;;;;11.60;8.77;;;10.60;99.90;;;;;;5003827;28;20046;-65
2022/11/16 00:55:38;;;;;;;11.35;8.40;;;10.50;99.90;;;;;;5003714;28;20034;-65
2022/11/16 00:58:04;;;;;;;11.35;8.55;;;10.50;99.90;;;;;;5004721;28;20536;-65
2022/11/16 01:00:29;;;;;;;9.35;8.35;;;10.50;99.90;;;;;;5003132;28;20520;-64
2022/11/16 01:02:55;;;;;;;9.13;7.65;;;10.40;99.90;;;;;;5003604;28;20077;-65
2022/11/16 01:05:22;;;;;;;9.63;8.48;;;10.60;99.90;;;;;;5003877;28;20048;-64
2022/11/16 01:07:48;;;;;;;10.95;8.35;;;10.50;99.90;;;;;;5003188;28;20697;-64
2022/11/16 01:10:17;;;;;;;9.65;8.38;;;10.40;99.90;;;;;;5003269;28;20046;-65
2022/11/16 01:12:44;;;;;;;9.90;8.45;;;10.60;99.90;;;;;;5003939;28;20718;-65
2022/11/16 01:15:10;;;;;;;8.40;7.22;;;10.60;99.90;;;;;;5003810;28;20046;-65
2022/11/16 01:17:38;;;;;;;8.27;6.93;;;10.50;99.90;;;;;;5003066;28;20469;-65
2022/11/16 01:20:06;;;;;;;9.77;7.82;;;10.70;99.90;;;;;;5002874;28;20038;-65
2022/11/16 01:22:34;;;;;;;9.02;7.63;;;10.70;99.90;;;;;;5002842;28;20049;-64
2022/11/16 01:25:00;;;;;;;9.35;7.75;;;10.60;99.90;;;;;;5002219;28;20496;-64
2022/11/16 01:27:26;;;;;;;9.60;7.75;;;10.90;99.90;;;;;;5003444;28;20112;-65
2022/11/16 01:29:52;;;;;;;8.68;7.18;;;10.80;99.90;;;;;;5002775;28;20544;-65
2022/11/16 01:32:18;;;;;;;8.48;7.00;;;10.80;99.90;;;;;;5002748;28;20046;-65
2022/11/16 01:34:44;;;;;;;7.60;6.60;;;10.70;99.90;;;;;;5003433;28;20052;-65
2022/11/16 01:37:10;;;;;;;8.90;7.10;;;10.80;99.90;;;;;;5003649;28;20048;-65
2022/11/16 01:39:36;;;;;;;9.07;6.72;;;10.60;99.90;;;;;;5003039;28;20042;-65
2022/11/16 01:42:02;;;;;;;9.07;6.28;;;10.80;99.90;;;;;;5002765;28;20512;-65
2022/11/16 01:44:30;;;;;;;8.55;6.78;;;10.80;99.90;;;;;;5003458;28;20125;-65
2022/11/16 01:47:07;;;;;;;6.80;6.00;;;10.60;99.90;;;;;;5003503;28;20089;-65
2022/11/16 01:49:36;;;;;;;8.43;6.63;;;10.90;99.90;;;;;;5002398;28;20117;-65
2022/11/16 01:52:06;;;;;;;7.38;5.68;;;10.80;99.90;;;;;;5003229;28;20053;-65
2022/11/16 01:54:36;;;;;;;7.30;5.57;;;10.90;99.90;;;;;;5002664;28;20603;-65
2022/11/16 01:57:04;;;;;;;8.85;5.85;;;10.90;99.90;;;;;;5002424;28;20053;-65
2022/11/16 01:59:30;;;;;;;7.50;6.00;;;10.70;99.90;;;;;;5003315;28;20042;-65
2022/11/16 02:01:59;;;;;;;7.53;6.20;;;10.90;99.90;;;;;;5003188;28;20342;-65
2022/11/16 02:04:25;;;;;;;7.13;5.68;;;10.90;99.90;;;;;;5001993;28;20076;-65
2022/11/16 02:07:26;;;;;;;7.32;6.13;;;10.80;99.90;;;;;;4985633;28;20362;-65
2022/11/16 02:10:03;;;;;;;7.10;5.93;;;10.80;99.90;;;;;;4990519;28;20049;-65
2022/11/16 02:12:50;;;;;;;9.95;6.25;;;10.70;99.90;;;;;;5002979;28;20180;-65
2022/11/16 02:15:29;;;;;;;8.93;6.95;;;10.90;99.90;;;;;;5001863;28;20037;-65
2022/11/16 02:18:17;;;;;;;9.50;6.60;;;10.90;99.90;;;;;;5003406;28;20501;-65
2022/11/16 02:20:45;;;;;;;10.23;7.20;;;10.80;99.90;;;;;;5002881;28;20042;-65
2022/11/16 02:23:56;;;;;;;9.93;7.20;;;10.80;99.90;;;;;;5002806;28;20056;-65
2022/11/16 02:26:54;;;;;;;8.70;6.93;;;10.60;99.90;;;;;;4971221;28;20408;-65
2022/11/16 02:29:36;;;;;;;9.13;7.03;;;10.80;99.90;;;;;;5001825;28;20041;-65
2022/11/16 02:32:13;;;;;;;8.25;6.93;;;10.80;99.90;;;;;;5003157;28;20103;-65
2022/11/16 02:34:47;;;;;;;8.95;6.72;;;10.60;99.90;;;;;;5004179;28;20503;-65
2022/11/16 02:37:18;;;;;;;7.90;6.45;;;10.60;99.90;;;;;;5009866;28;20037;-65
2022/11/16 02:39:47;;;;;;;10.10;6.97;;;10.50;99.90;;;;;;5007718;28;20132;-65
2022/11/16 02:42:20;;;;;;;8.93;7.30;;;10.70;99.90;;;;;;5009735;28;20049;-65
2022/11/16 02:44:48;;;;;;;9.68;7.05;;;10.70;99.90;;;;;;5009044;28;20598;-65
2022/11/16 02:47:21;;;;;;;9.82;7.85;;;10.70;99.90;;;;;;5009036;28;20041;-65
2022/11/16 02:49:54;;;;;;;8.48;7.35;;;10.60;99.90;;;;;;5008687;28;20042;-65
2022/11/16 02:52:21;;;;;;;8.88;7.60;;;10.70;99.90;;;;;;5008856;28;20085;-65
2022/11/16 02:54:47;;;;;;;11.27;7.60;;;10.60;99.90;;;;;;5007363;28;20092;-65
2022/11/16 02:57:22;;;;;;;9.05;7.82;;;10.40;99.90;;;;;;5009617;28;20042;-65
2022/11/16 02:59:50;;;;;;;;;;;10.60;99.90;;;;;;5009929;28;20041;-65
2022/11/16 03:02:54;;;;;;;10.50;7.53;;;10.60;99.90;;;;;;5008541;28;19921;-65
2022/11/16 03:05:34;;;;;;;9.57;7.70;;;10.40;99.90;;;;;;5008325;28;20132;-65
2022/11/16 03:08:11;;;;;;;10.80;7.72;;;10.60;99.90;;;;;;5008829;28;20067;-65
2022/11/16 03:13:27;;;;;;;10.32;7.60;;;10.50;99.90;;;;;;5008753;28;20060;-65
2022/11/16 03:15:55;;;;;;;11.52;8.45;;;10.40;99.90;;;;;;5008606;28;20034;-65
2022/11/16 03:18:22;;;;;;;11.55;7.95;;;10.60;99.90;;;;;;5007962;28;20144;-65
2022/11/16 03:20:51;;;;;;;10.18;8.10;;;10.40;99.90;;;;;;5009342;28;20389;-65
2022/11/16 03:23:17;;;;;;;9.98;7.95;;;10.60;99.90;;;;;;5009040;28;20057;-65
2022/11/16 03:25:51;;;;;;;11.15;8.45;;;10.40;99.90;;;;;;5007860;28;20060;-65
2022/11/16 03:28:48;;;;;;;10.20;8.55;;;10.50;99.90;;;;;;5008497;28;20163;-65
2022/11/16 03:31:20;;;;;;;9.07;7.95;;;10.40;99.90;;;;;;5008008;28;20123;-65
2022/11/16 03:33:51;;;;;;;10.32;8.75;;;10.50;99.90;;;;;;5008780;28;20042;-65
2022/11/16 03:36:31;;;;;;;12.23;8.80;;;10.40;99.90;;;;;;5008529;28;20050;-65
2022/11/16 03:39:01;;;;;;;10.35;8.50;;;10.30;99.90;;;;;;5007569;28;20049;-65
2022/11/16 03:41:28;;;;;;;10.23;8.80;;;10.30;99.90;;;;;;4990369;28;20050;-65
2022/11/16 03:43:56;;;;;;;11.70;8.75;;;10.30;99.90;;;;;;4990048;28;20111;-65
2022/11/16 03:46:22;;;;;;;11.05;9.25;;;10.40;99.90;;;;;;5006740;28;20141;-65
2022/11/16 03:48:54;;;;;;;11.13;8.85;;;10.30;99.90;;;;;;5005734;28;20071;-65
2022/11/16 03:51:20;;;;;;;10.45;8.95;;;10.40;99.90;;;;;;5005137;28;20081;-65
2022/11/16 03:53:45;;;;;;;10.93;8.52;;;10.60;99.90;;;;;;5004874;28;20144;-65
2022/11/16 03:56:11;;;;;;;11.07;9.82;;;10.50;99.90;;;;;;5004433;28;20505;-65
2022/11/16 03:58:36;;;;;;;10.65;9.07;;;10.50;99.90;;;;;;5005704;28;20870;-65
2022/11/16 04:01:02;;;;;;;11.13;9.45;;;10.50;99.90;;;;;;5004299;28;20128;-65
2022/11/16 04:03:28;;;;;;;12.23;9.77;;;10.20;99.90;;;;;;5005552;28;20536;-65
2022/11/16 04:25:43;;;;;;;13.88;11.82;;;10.40;99.90;;;;;;4984163;28;20042;-65
2022/11/16 04:28:17;;;;;;;14.27;10.82;;;10.40;99.90;;;;;;4985538;28;20070;-65
2022/11/16 04:39:02;;;;;;;13.98;11.95;;;10.20;99.90;;;;;;4984395;28;20086;-65
2022/11/16 04:44:16;;;;;;;13.50;11.65;;;10.40;99.90;;;;;;4985303;28;20275;-65
2022/11/16 04:49:26;;;;;;;14.50;13.00;;;10.40;99.90;;;;;;4985112;28;20149;-65
2022/11/16 04:51:52;;;;;;;15.50;13.32;;;10.40;99.90;;;;;;4984824;28;20828;-65
2022/11/16 04:54:18;;;;;;;14.60;13.02;;;10.30;99.90;;;;;;4984363;28;20038;-65
2022/11/16 04:56:44;;;;;;;16.50;13.07;;;10.20;99.90;;;;;;4984014;28;20071;-65
2022/11/16 04:59:09;;;;;;;16.33;11.93;;;10.30;99.90;;;;;;4966859;28;20172;-65
2022/11/16 05:04:19;;;;;;;17.52;14.25;;;10.30;99.90;;;;;;4988149;28;20052;-65
2022/11/16 05:06:46;;;;;;;15.63;13.90;;;10.40;99.90;;;;;;5003932;28;20042;-65
2022/11/16 05:09:11;;;;;;;16.75;13.82;;;10.40;99.90;;;;;;5003436;28;20150;-65
2022/11/16 05:11:37;;;;;;;16.02;14.15;;;10.20;99.90;;;;;;5003079;28;20033;-65
2022/11/16 05:14:04;;;;;;;16.80;14.60;;;10.30;99.90;;;;;;5004229;28;20050;-65
2022/11/16 05:16:30;;;;;;;14.50;12.38;;;10.30;99.90;;;;;;5004411;28;20049;-65
2022/11/16 05:21:40;;;;;;;15.65;13.70;;;10.40;99.90;;;;;;5003757;28;20053;-65
2022/11/16 05:26:50;;;;;;;16.90;14.75;;;10.30;99.90;;;;;;5004357;28;20076;-64
2022/11/16 05:29:16;;;;;;;15.73;13.68;;;10.30;99.90;;;;;;5003917;28;20038;-65
2022/11/16 05:31:41;;;;;;;16.33;14.60;;;10.20;99.90;;;;;;5004290;28;20120;-65
2022/11/16 05:34:08;;;;;;;14.82;12.80;;;10.20;99.90;;;;;;4985311;28;20246;-65
2022/11/16 05:36:34;;;;;;;15.95;14.25;;;10.20;99.90;;;;;;5003095;28;20073;-65
2022/11/16 05:38:59;;;;;;;16.65;14.50;;;10.30;99.90;;;;;;4985056;28;20042;-66
2022/11/16 05:41:25;;;;;;;16.23;14.45;;;10.10;99.90;;;;;;5003823;28;20045;-65
2022/11/16 05:43:50;;;;;;;16.38;14.50;;;10.00;99.90;;;;;;5003276;28;20092;-65
2022/11/16 05:46:16;;;;;;;16.10;14.45;;;10.10;99.90;;;;;;5003835;28;20444;-65
2022/11/16 05:48:42;;;;;;;16.50;14.80;;;10.20;99.90;;;;;;4986009;28;20121;-65
2022/11/16 05:51:07;;;;;;;14.32;12.73;;;10.20;99.90;;;;;;5002618;28;20555;-65
2022/11/16 05:53:33;;;;;;;15.70;13.50;;;10.10;99.90;;;;;;5001892;28;20038;-65
2022/11/16 05:55:58;;;;;;;16.35;13.43;;;10.10;99.90;;;;;;5003239;28;20053;-65
2022/11/16 05:58:24;;;;;;;15.85;14.13;;;10.20;99.90;;;;;;4986235;28;20072;-65
2022/11/16 06:00:50;;;;;;;15.77;13.77;;;10.20;99.90;;;;;;5002194;28;20048;-65
2022/11/16 06:03:15;;;;;;;15.95;13.95;;;10.00;99.90;;;;;;5003470;28;20042;-65
2022/11/16 06:05:41;;;;;;;15.20;12.50;;;10.00;99.90;;;;;;5002873;28;20050;-65
2022/11/16 06:08:07;;;;;;;17.63;14.07;;;10.10;99.90;;;;;;4985541;28;20617;-65
2022/11/16 06:10:33;;;;;;;14.75;12.85;;;10.00;99.90;;;;;;4983092;28;20508;-65
2022/11/16 06:12:59;;;;;;;14.95;12.68;;;10.00;99.90;;;;;;5003319;28;20401;-65
2022/11/16 06:15:24;;;;;;;17.23;13.52;;;10.00;99.90;;;;;;5003915;28;20049;-65
2022/11/16 06:17:50;;;;;;;15.70;14.00;;;10.00;99.90;;;;;;5003168;28;20060;-65
2022/11/16 06:20:16;;;;;;;15.05;13.45;;;9.90;99.90;;;;;;5001304;28;20054;-65
2022/11/16 06:22:41;;;;;;;15.90;14.25;;;10.10;99.90;;;;;;5002557;28;20077;-65
2022/11/16 06:25:08;;;;;;;15.23;13.15;;;10.00;99.90;;;;;;5002254;28;20038;-65
2022/11/16 06:27:33;;;;;;;15.43;13.15;;;10.10;99.90;;;;;;5002029;28;20457;-64
2022/11/16 06:29:59;;;;;;;16.85;13.52;;;10.20;99.90;;;;;;5002804;28;20156;-65
2022/11/16 06:32:25;;;;;;;15.93;14.23;;;10.00;99.90;;;;;;5003359;28;20045;-65
2022/11/16 06:34:51;;;;;;;17.00;13.75;;;10.10;99.90;;;;;;5002480;28;20140;-65
2022/11/16 06:37:17;;;;;;;17.30;14.60;;;10.00;99.90;;;;;;5001641;28;20120;-65
2022/11/16 06:39:43;;;;;;;17.10;14.63;;;10.10;99.90;;;;;;5002014;28;20046;-65
2022/11/16 06:42:09;;;;;;;15.93;14.23;;;10.00;99.90;;;;;;5002886;28;20060;-65
2022/11/16 06:44:35;;;;;;;15.25;13.65;;;10.20;99.90;;;;;;5002707;28;20755;-65
2022/11/16 06:47:01;;;;;;;16.50;14.05;;;10.10;99.90;;;;;;5001870;28;20104;-65
2022/11/16 06:49:27;;;;;;;16.50;14.50;;;10.20;99.90;;;;;;5002955;28;20675;-65
2022/11/16 06:51:53;;;;;;;16.60;14.65;;;10.10;99.90;;;;;;5002974;28;20061;-65
2022/11/16 06:54:18;;;;;;;17.75;15.38;;;10.00;99.90;;;;;;5000418;28;20046;-65
2022/11/16 06:56:44;;;;;;;18.23;15.95;;;10.20;99.90;;;;;;4983816;28;20050;-65
2022/11/16 06:59:10;;;;;;;19.77;15.32;;;10.20;99.90;;;;;;5002829;28;20081;-65
2022/11/16 07:01:36;;;;;;;19.63;17.08;;;10.00;99.90;;;;;;5003036;28;20561;-65
2022/11/16 07:04:01;;;;;;;18.08;15.05;;;10.10;99.90;;;;;;4983715;28;20366;-65
2022/11/16 07:06:28;;;;;;;18.75;16.85;;;10.20;99.90;;;;;;4984972;28;20054;-65
2022/11/16 07:08:54;;;;;;;19.40;17.35;;;10.10;99.90;;;;;;5001602;28;20053;-65
2022/11/16 07:11:19;;;;;;;19.67;17.40;;;10.10;99.90;;;;;;5001892;28;20045;-65
2022/11/16 07:13:45;;;;;;;18.67;15.75;;;10.20;99.90;;;;;;5000880;28;20505;-65
2022/11/16 07:16:11;;;;;;;19.40;17.33;;;10.20;99.90;;;;;;5001519;28;20775;-65
2022/11/16 07:18:40;;;;;;;22.85;17.60;;;10.30;99.90;;;;;;5001345;28;20115;-65
2022/11/16 07:21:14;;;;;;;19.70;17.60;;;10.20;99.90;;;;;;5001234;28;20479;-65
2022/11/16 07:23:40;;;;;;;21.38;18.42;;;10.20;99.90;;;;;;5003667;28;20422;-65
2022/11/16 07:26:07;;;;;;;22.55;20.08;;;10.10;99.90;;;;;;5005216;28;20093;-65
2022/11/16 07:28:33;;;;;;;21.13;18.83;;;10.30;99.90;;;;;;5004283;28;20046;-65
2022/11/16 07:31:07;;;;;;;22.13;19.17;;;10.10;99.90;;;;;;5004957;28;20041;-65
2022/11/16 07:33:33;;;;;;;21.90;19.50;;;10.20;99.90;;;;;;5004672;28;20120;-65
2022/11/16 07:36:04;;;;;;;21.98;19.67;;;10.30;99.90;;;;;;5005226;28;20368;-65
2022/11/16 07:38:31;;;;;;;23.00;19.95;;;10.10;99.90;;;;;;4988003;28;20053;-65
2022/11/16 07:41:08;;;;;;;22.55;19.45;;;10.20;99.90;;;;;;5005846;28;20038;-65
2022/11/16 07:43:34;;;;;;;21.95;19.52;;;10.20;99.90;;;;;;5004673;28;20460;-65
2022/11/16 07:46:17;;;;;;;23.00;20.05;;;10.20;99.90;;;;;;5006453;28;20050;-65
2022/11/16 07:48:43;;;;;;;21.38;19.08;;;10.10;99.90;;;;;;5005313;28;20046;-65
2022/11/16 07:51:15;;;;;;;19.20;16.70;;;10.10;99.90;;;;;;5004938;28;20041;-65
2022/11/16 07:53:41;;;;;;;22.02;18.92;;;10.30;99.90;;;;;;5004392;28;20038;-65
2022/11/16 07:56:07;;;;;;;23.08;20.65;;;10.30;99.90;;;;;;5005499;28;20096;-65
2022/11/16 07:58:34;;;;;;;24.08;20.33;;;10.10;99.90;;;;;;5003930;28;20470;-65
2022/11/16 08:01:05;;;;;;;21.23;19.08;;;10.30;99.90;;;;;;5006007;28;20113;-65
2022/11/16 08:03:32;;;;;;;24.08;20.70;;;10.30;99.90;;;;;;5005135;28;20038;-65
2022/11/16 08:06:00;;;;;;;27.63;24.10;;;10.20;99.90;;;;;;5003584;28;20085;-65
2022/11/16 08:08:25;;;;;;;30.25;27.08;;;10.20;99.90;;;;;;5004303;28;20433;-65
2022/11/16 08:10:51;;;;;;;31.27;27.30;;;10.20;99.90;;;;;;5005504;28;20048;-65
2022/11/16 08:13:16;;;;;;;27.10;24.20;;;10.30;99.90;;;;;;5004922;28;20041;-65
2022/11/16 08:15:42;;;;;;;24.92;21.65;;;10.30;99.90;;;;;;5004323;28;20037;-65
2022/11/16 08:18:08;;;;;;;23.33;20.80;;;10.10;99.90;;;;;;5005471;28;20129;-65
2022/11/16 08:20:35;;;;;;;21.35;19.00;;;10.30;99.90;;;;;;5005174;28;20120;-65
2022/11/16 08:23:01;;;;;;;20.38;17.27;;;10.30;99.90;;;;;;5004404;28;20116;-65
2022/11/16 08:25:26;;;;;;;21.10;18.85;;;10.20;99.90;;;;;;5004086;28;20469;-65
2022/11/16 08:27:52;;;;;;;21.90;19.13;;;10.10;99.90;;;;;;5004631;28;20126;-65
2022/11/16 08:30:18;;;;;;;19.73;17.63;;;10.30;99.90;;;;;;5004677;28;20062;-65
2022/11/16 08:32:44;;;;;;;20.52;18.50;;;10.30;99.90;;;;;;5003382;28;20127;-65
2022/11/16 08:35:10;;;;;;;20.63;18.42;;;10.30;99.90;;;;;;5004306;28;20038;-65
2022/11/16 08:37:36;;;;;;;19.92;17.83;;;10.20;99.90;;;;;;5004742;28;20070;-65
2022/11/16 08:40:02;;;;;;;18.95;17.05;;;10.30;99.90;;;;;;5003862;28;20519;-65
2022/11/16 08:42:28;;;;;;;20.38;18.27;;;10.20;99.90;;;;;;5003699;28;20129;-65
2022/11/16 08:44:53;;;;;;;19.55;17.52;;;10.20;99.90;;;;;;5004297;28;20128;-65
2022/11/16 08:47:19;;;;;;;20.70;18.50;;;10.20;99.90;;;;;;5004538;28;20062;-65
2022/11/16 08:49:45;;;;;;;20.77;18.52;;;10.10;99.90;;;;;;4986538;28;20061;-65
2022/11/16 08:52:11;;;;;;;21.08;18.83;;;10.30;99.90;;;;;;5003928;28;20447;-65
2022/11/16 08:54:37;;;;;;;20.23;16.65;;;10.30;99.90;;;;;;5003439;28;20037;-65
2022/11/16 08:57:02;;;;;;;21.73;19.45;;;10.20;99.90;;;;;;5004480;28;20042;-65
2022/11/16 08:59:28;;;;;;;22.35;20.05;;;10.20;99.90;;;;;;5003549;28;20049;-65
2022/11/16 09:01:54;;;;;;;21.73;19.42;;;10.20;99.90;;;;;;5004287;28;20041;-66
2022/11/16 09:04:20;;;;;;;23.25;20.73;;;10.30;99.90;;;;;;4985821;28;20068;-65
2022/11/16 09:06:46;;;;;;;20.85;18.58;;;10.30;99.90;;;;;;5003452;28;20037;-65
2022/11/16 09:09:11;;;;;;;23.02;20.58;;;10.20;99.90;;;;;;5002052;28;20049;-65
2022/11/16 09:11:37;;;;;;;22.70;20.30;;;10.40;99.90;;;;;;5004081;28;20048;-65
2022/11/16 09:14:03;;;;;;;22.90;20.58;;;10.40;99.90;;;;;;5004653;28;20044;-65
2022/11/16 09:16:28;;;;;;;25.88;21.23;;;10.20;99.90;;;;;;5003638;28;20038;-65
2022/11/16 09:18:55;;;;;;;23.45;20.95;;;10.20;99.90;;;;;;5003486;28;20037;-65
2022/11/16 09:21:29;;;;;;;23.60;21.15;;;10.30;99.90;;;;;;4986147;28;20144;-65
2022/11/16 09:23:56;;;;;;;25.67;22.80;;;10.40;99.90;;;;;;5002822;28;20090;-65
2022/11/16 09:26:22;;;;;;;24.70;22.08;;;10.30;99.90;;;;;;5002778;28;20058;-65
2022/11/16 09:28:57;;;;;;;23.23;20.73;;;10.40;99.90;;;;;;5003470;28;20488;-65
2022/11/16 09:31:26;;;;;;;24.08;21.48;;;10.50;99.90;;;;;;5003386;28;20042;-65
2022/11/16 09:33:52;;;;;;;23.60;20.83;;;10.50;99.90;;;;;;5003235;28;20603;-66
2022/11/16 09:36:19;;;;;;;22.27;19.55;;;10.30;99.90;;;;;;5002967;28;20042;-66
2022/11/16 09:38:46;;;;;;;21.83;19.10;;;10.30;99.90;;;;;;5002387;28;20054;-64
2022/11/16 09:41:24;;;;;;;23.13;19.25;;;10.40;99.90;;;;;;5002300;28;20060;-64
2022/11/16 09:43:57;;;;;;;22.35;18.35;;;10.40;99.90;;;;;;5003178;28;20053;-65
2022/11/16 09:46:30;;;;;;;20.60;18.35;;;10.50;99.90;;;;;;5002697;28;20165;-65
2022/11/16 09:48:59;;;;;;;21.23;18.58;;;10.50;99.90;;;;;;5002919;28;20112;-65
2022/11/16 09:51:28;;;;;;;21.63;19.33;;;10.50;99.90;;;;;;5003164;28;20045;-66
2022/11/16 09:54:15;;;;;;;21.77;19.40;;;10.60;99.90;;;;;;5002699;28;20042;-67
2022/11/16 09:56:41;;;;;;;21.08;18.48;;;10.60;99.90;;;;;;5003524;28;20732;-67
2022/11/16 09:59:07;;;;;;;20.60;18.50;;;10.50;99.90;;;;;;5003346;28;20450;-66
2022/11/16 10:01:38;;;;;;;21.08;17.77;;;10.50;99.90;;;;;;5001497;28;20041;-57
2022/11/16 10:04:18;;;;;;;21.90;19.48;;;10.70;99.90;;;;;;4984416;28;20041;-65
2022/11/16 10:07:11;;;;;;;21.88;19.50;;;10.50;99.90;;;;;;5003119;28;20034;-65
2022/11/16 10:09:37;;;;;;;21.67;19.38;;;10.70;99.90;;;;;;5001379;28;20124;-65
2022/11/16 10:12:23;;;;;;;19.60;17.00;;;10.60;99.90;;;;;;5001890;28;20089;-65
2022/11/16 10:15:01;;;;;;;20.50;18.27;;;10.90;99.90;;;;;;5002580;28;20080;-64
2022/11/16 10:17:48;;;;;;;20.83;18.63;;;10.70;99.90;;;;;;5002739;28;20049;-65
2022/11/16 10:20:53;;;;;;;21.73;19.40;;;10.80;99.90;;;;;;5002366;28;20195;-64
2022/11/16 10:23:30;;;;;;;20.63;18.47;;;10.80;99.90;;;;;;5001218;28;20050;-65
2022/11/16 10:26:21;;;;;;;20.40;18.40;;;10.90;99.90;;;;;;5002400;28;20312;-65
2022/11/16 10:28:59;;;;;;;21.02;18.80;;;10.70;99.90;;;;;;4996498;28;20076;-65
2022/11/16 10:32:11;;;;;;;21.02;18.77;;;10.80;99.90;;;;;;5001280;28;20108;-65
2022/11/16 10:35:04;;;;;;;22.50;20.20;;;11.00;99.90;;;;;;4941483;28;20139;-65
2022/11/16 10:37:32;;;;;;;23.55;21.05;;;11.00;99.90;;;;;;4898152;28;20062;-65
2022/11/16 10:39:58;;;;;;;22.60;20.35;;;10.90;99.90;;;;;;4980302;28;20515;-65
2022/11/16 10:42:33;;;;;;;23.45;21.05;;;10.90;99.90;;;;;;5002197;28;20038;-65
2022/11/16 10:45:05;;;;;;;;;;;10.80;99.90;;;;;;5002410;28;20046;-65
2022/11/16 10:47:45;;;;;;;23.23;20.70;;;11.00;99.90;;;;;;5001218;28;19918;-65
2022/11/16 10:50:25;;;;;;;23.15;20.80;;;10.90;99.90;;;;;;5002642;28;20393;-65
2022/11/16 10:52:50;;;;;;;22.05;19.80;;;10.90;99.90;;;;;;5000638;28;20050;-65
2022/11/16 10:55:19;;;;;;;22.80;20.50;;;10.90;99.90;;;;;;5001485;28;20056;-65
2022/11/16 10:58:02;;;;;;;22.58;18.77;;;10.90;99.90;;;;;;5004984;28;20137;-65
2022/11/16 11:00:37;;;;;;;23.15;20.50;;;11.00;99.90;;;;;;5005051;28;20104;-65
2022/11/16 11:03:04;;;;;;;22.48;20.17;;;10.90;99.90;;;;;;5005955;28;20455;-65
2022/11/16 11:05:30;;;;;;;25.52;20.88;;;11.10;99.90;;;;;;5005299;28;20613;-65
2022/11/16 11:08:10;;;;;;;22.95;20.45;;;10.80;99.90;;;;;;5004035;28;20078;-66
2022/11/16 11:10:40;;;;;;;22.48;18.85;;;11.00;99.90;;;;;;5005585;28;20100;-66
2022/11/16 11:13:09;;;;;;;22.83;20.27;;;11.00;99.90;;;;;;5005211;28;20050;-66
2022/11/16 11:15:35;;;;;;;20.67;18.52;;;11.00;99.90;;;;;;5005417;28;20050;-65
2022/11/16 11:18:30;;;;;;;20.52;18.35;;;11.20;99.90;;;;;;5005199;28;20041;-65
2022/11/16 11:21:21;;;;;;;19.58;17.58;;;11.20;99.90;;;;;;4988255;28;20058;-65
2022/11/16 11:23:51;;;;;;;19.90;17.70;;;11.30;99.90;;;;;;5004295;28;20858;-65
2022/11/16 11:26:34;;;;;;;20.35;18.25;;;11.30;99.90;;;;;;5004719;28;20057;-65
2022/11/16 11:29:01;;;;;;;20.02;17.08;;;11.30;99.90;;;;;;5005352;28;20048;-65
2022/11/16 11:31:38;;;;;;;18.90;17.02;;;11.40;99.90;;;;;;5004513;28;20050;-66
2022/11/16 11:34:13;;;;;;;19.08;17.17;;;11.40;99.90;;;;;;5005102;28;20046;-65
2022/11/16 11:36:44;;;;;;;20.20;18.05;;;11.40;99.90;;;;;;4987167;28;20041;-66
2022/11/16 11:39:10;;;;;;;18.25;16.38;;;11.40;99.90;;;;;;4987858;28;20042;-64
2022/11/16 11:41:38;;;;;;;18.48;16.35;;;11.70;99.90;;;;;;5005084;28;20418;-66
2022/11/16 11:44:18;;;;;;;18.77;16.80;;;11.60;99.90;;;;;;5005227;28;20037;-66
2022/11/16 11:46:53;;;;;;;18.38;15.82;;;11.70;99.90;;;;;;5006004;28;20629;-67
2022/11/16 11:49:30;;;;;;;17.20;14.75;;;11.60;99.90;;;;;;5006037;28;20517;-65
2022/11/16 11:52:01;;;;;;;16.98;14.68;;;11.40;99.90;;;;;;4987766;28;20133;-65
2022/11/16 11:54:33;;;;;;;16.02;13.55;;;11.40;99.90;;;;;;5004092;28;20046;-66
2022/11/16 11:57:01;;;;;;;14.70;11.63;;;11.50;99.90;;;;;;5004343;28;20057;-67
2022/11/16 11:59:27;;;;;;;16.67;11.73;;;11.30;99.90;;;;;;5005721;28;20053;-66
2022/11/16 12:02:23;;;;;;;14.10;12.02;;;11.60;99.90;;;;;;5005457;28;20042;-66
2022/11/16 12:05:07;;;;;;;14.75;11.10;;;11.30;99.90;;;;;;5004958;28;20565;-66
2022/11/16 12:07:45;;;;;;;14.15;10.73;;;11.30;99.90;;;;;;4997277;28;20042;-65
2022/11/16 12:10:51;;;;;;;13.40;10.85;;;11.60;99.90;;;;;;5005388;28;20050;-66
2022/11/16 12:13:46;;;;;;;17.50;11.30;;;11.40;99.90;;;;;;4923912;29;20463;-67
2022/11/16 12:16:38;;;;;;;15.25;10.90;;;11.70;99.90;;;;;;4975789;28;20184;-66
2022/11/16 12:19:23;;;;;;;17.23;10.63;;;11.50;99.90;;;;;;5000987;28;20528;-66
2022/11/16 12:22:27;;;;;;;13.60;9.88;;;11.50;99.90;;;;;;4986795;28;20046;-66
2022/11/16 12:25:33;;;;;;;10.18;7.85;;;11.70;99.90;;;;;;5003862;28;20100;-66
2022/11/16 12:28:35;;;;;;;11.63;8.32;;;11.60;99.90;;;;;;4993449;28;20058;-66
2022/11/16 12:31:07;;;;;;;13.43;8.85;;;11.80;99.90;;;;;;5003902;28;20524;-66
2022/11/16 12:34:02;;;;;;;11.68;8.00;;;11.70;99.90;;;;;;5002850;28;20073;-66
2022/11/16 12:37:09;;;;;;;11.85;7.18;;;11.80;99.90;;;;;;4986505;28;20058;-66
2022/11/16 12:39:54;;;;;;;11.40;7.30;;;12.00;99.90;;;;;;4981118;28;20108;-66
2022/11/16 12:42:35;;;;;;;;;;;12.10;99.90;;;;;;5005097;28;20042;-67
2022/11/16 12:45:31;;;;;;;8.88;5.88;;;12.20;99.90;;;;;;5004811;28;19922;-66
2022/11/16 12:48:09;;;;;;;9.57;6.47;;;12.30;99.90;;;;;;5004927;28;20050;-66
2022/11/16 12:50:41;;;;;;;9.45;6.20;;;12.20;99.90;;;;;;5003878;28;20042;-67
2022/11/16 12:53:36;;;;;;;12.13;6.75;;;12.40;99.90;;;;;;5003157;28;20049;-67
2022/11/16 12:56:15;;;;;;;11.95;5.93;;;12.30;99.90;;;;;;5002540;28;20081;-66
2022/11/16 12:59:04;;;;;;;10.10;5.75;;;12.40;99.90;;;;;;5004429;28;20049;-66
2022/11/16 13:01:32;;;;;;;10.77;6.15;;;12.30;99.90;;;;;;5004383;28;20045;-66
2022/11/16 13:04:14;;;;;;;11.55;6.15;;;12.40;99.90;;;;;;5003263;28;20045;-66
2022/11/16 13:07:05;;;;;;;9.48;6.18;;;12.30;99.90;;;;;;4985126;28;20049;-65
2022/11/16 13:09:36;;;;;;;8.68;6.03;;;12.40;99.90;;;;;;4995327;28;20050;-66
2022/11/16 13:12:06;;;;;;;10.43;6.00;;;12.40;99.90;;;;;;5001977;28;20058;-67
2022/11/16 13:14:45;;;;;;;9.32;5.75;;;12.60;99.90;;;;;;5003078;28;20042;-67
2022/11/16 13:17:24;;;;;;;9.30;5.80;;;12.30;99.90;;;;;;5002925;28;20045;-66
2022/11/16 13:20:28;;;;;;;10.48;5.75;;;12.50;99.90;;;;;;5004200;28;20142;-66
2022/11/16 13:23:02;;;;;;;9.00;4.78;;;12.30;99.90;;;;;;5002256;28;20049;-68
2022/11/16 13:25:38;;;;;;;9.55;4.85;;;12.40;99.90;;;;;;5002125;28;20049;-67
2022/11/16 13:28:25;;;;;;;10.90;5.10;;;12.20;99.90;;;;;;5001695;28;20042;-67
2022/11/16 13:31:12;;;;;;;9.77;4.43;;;12.30;99.90;;;;;;5002419;28;20112;-67
2022/11/16 13:34:11;;;;;;;10.05;4.18;;;12.30;99.90;;;;;;4989457;28;20073;-67
2022/11/16 13:36:42;;;;;;;8.95;4.45;;;12.50;99.90;;;;;;4964030;28;20054;-67
2022/11/16 13:39:10;;;;;;;11.45;4.50;;;12.60;99.90;;;;;;4992344;28;20688;-67
2022/11/16 13:41:41;;;;;;;10.75;4.88;;;12.50;99.90;;;;;;5003619;28;20056;-67